createdAt,value
2019-02-26T00:03:35.248Z,9.94
2019-02-26T00:08:41.165Z,9.73
2019-02-26T00:13:48.621Z,9.53
2019-02-26T00:18:56.231Z,11.16
2019-02-26T00:24:05.043Z,10.35
2019-02-26T00:29:12.025Z,10.10
2019-02-26T00:34:18.703Z,10.31
2019-02-26T00:39:25.109Z,10.12
2019-02-26T00:44:32.721Z,10.03
2019-02-26T00:49:39.145Z,9.52
2019-02-26T00:54:44.973Z,9.42
2019-02-26T00:59:50.939Z,9.22
2019-02-26T01:04:56.532Z,9.26
2019-02-26T01:10:02.320Z,9.28
2019-02-26T01:15:22.829Z,9.10
2019-02-26T01:20:30.237Z,9.01
2019-02-26T01:25:38.273Z,8.77
2019-02-26T01:30:43.359Z,8.65
2019-02-26T01:35:50.300Z,8.89
2019-02-26T01:40:56.673Z,8.85
2019-02-26T01:46:02.768Z,8.32
2019-02-26T01:51:08.850Z,8.26
2019-02-26T01:56:14.557Z,8.27
2019-02-26T02:01:23.867Z,8.38
2019-02-26T02:06:32.540Z,8.11
2019-02-26T02:11:40.601Z,8.58
2019-02-26T02:16:46.025Z,8.29
2019-02-26T02:21:53.801Z,8.74
2019-02-26T02:27:00.292Z,8.25
2019-02-26T02:32:07.719Z,8.36
2019-02-26T02:37:17.881Z,8.14
2019-02-26T02:42:24.486Z,7.42
2019-02-26T02:47:33.194Z,7.83
2019-02-26T02:52:37.996Z,7.78
2019-02-26T02:57:48.764Z,7.76
2019-02-26T03:02:53.024Z,7.27
2019-02-26T03:07:59.719Z,7.56
2019-02-26T03:13:05.397Z,7.47
2019-02-26T03:18:12.514Z,7.30
2019-02-26T03:23:20.187Z,6.82
2019-02-26T03:28:26.077Z,6.97
2019-02-26T03:33:32.100Z,7.26
2019-02-26T03:38:37.659Z,6.99
2019-02-26T03:43:43.431Z,6.65
2019-02-26T03:48:49.446Z,6.65
2019-02-26T03:53:55.065Z,7.19
2019-02-26T03:59:04.005Z,6.70
2019-02-26T04:04:08.417Z,6.70
2019-02-26T04:09:16.534Z,6.83
2019-02-26T04:14:22.907Z,6.87
2019-02-26T04:19:28.993Z,6.76
2019-02-26T04:24:38.106Z,6.69
2019-02-26T04:29:46.909Z,6.43
2019-02-26T04:34:56.942Z,6.24
2019-02-26T04:40:11.048Z,6.08
2019-02-26T04:45:35.373Z,6.53
2019-02-26T04:50:44.603Z,6.38
2019-02-26T04:55:50.044Z,6.08
2019-02-26T05:00:56.058Z,5.89
2019-02-26T05:06:07.369Z,6.26
2019-02-26T05:11:14.723Z,6.32
2019-02-26T05:16:18.217Z,6.39
2019-02-26T05:21:27.057Z,6.53
2019-02-26T05:26:32.777Z,5.94
2019-02-26T05:31:40.242Z,5.98
2019-02-26T05:36:46.385Z,6.08
2019-02-26T05:41:54.553Z,5.97
2019-02-26T05:47:01.593Z,5.91
2019-02-26T05:52:07.350Z,6.35
2019-02-26T05:57:25.964Z,5.73
2019-02-26T06:02:24.424Z,5.92
2019-02-26T06:07:35.529Z,5.50
2019-02-26T06:12:41.479Z,6.00
2019-02-26T06:17:48.245Z,6.25
2019-02-26T06:22:54.321Z,6.14
2019-02-26T06:28:04.488Z,5.80
2019-02-26T06:33:09.740Z,6.05
2019-02-26T06:38:16.159Z,6.06
2019-02-26T06:43:21.720Z,6.00
2019-02-26T06:48:29.635Z,5.98
2019-02-26T06:53:35.352Z,5.90
2019-02-26T06:58:43.251Z,5.81
2019-02-26T07:03:50.230Z,5.98
2019-02-26T07:08:55.780Z,5.89
2019-02-26T07:14:03.646Z,5.89
2019-02-26T07:19:11.540Z,6.15
2019-02-26T07:24:18.112Z,6.09
2019-02-26T07:29:24.069Z,6.55
2019-02-26T07:34:30.402Z,6.70
2019-02-26T07:39:36.247Z,7.30
2019-02-26T07:44:42.297Z,7.31
2019-02-26T07:49:49.168Z,6.64
2019-02-26T07:54:55.376Z,6.93
2019-02-26T08:00:02.289Z,7.23
2019-02-26T08:05:11.026Z,7.40
2019-02-26T08:10:19.543Z,7.60
2019-02-26T08:15:27.857Z,8.02
2019-02-26T08:20:35.660Z,8.15
2019-02-26T08:25:42.201Z,8.11
2019-02-26T08:30:49.911Z,8.40
2019-02-26T08:35:57.625Z,8.05
2019-02-26T08:41:04.329Z,8.51
2019-02-26T08:46:12.208Z,8.45
2019-02-26T08:51:21.521Z,8.22
2019-02-26T08:56:28.192Z,9.02
2019-02-26T09:01:33.826Z,8.84
2019-02-26T09:06:41.724Z,8.96
2019-02-26T09:11:47.716Z,9.68
2019-02-26T09:16:54.962Z,9.22
2019-02-26T09:22:01.452Z,9.50
2019-02-26T09:27:07.695Z,9.45
2019-02-26T09:32:16.068Z,9.85
2019-02-26T09:37:21.847Z,9.59
2019-02-26T09:42:30.031Z,9.98
2019-02-26T09:47:35.943Z,10.48
2019-02-26T09:52:41.666Z,10.12
2019-02-26T09:57:49.197Z,10.28
2019-02-26T10:02:55.027Z,9.85
2019-02-26T10:08:04.793Z,10.13
2019-02-26T10:13:08.146Z,9.86
2019-02-26T10:18:13.765Z,10.55
2019-02-26T10:23:21.771Z,11.20
2019-02-26T10:28:27.687Z,11.19
2019-02-26T10:33:37.789Z,11.68
2019-02-26T10:38:43.031Z,11.56
2019-02-26T10:43:48.834Z,11.20
2019-02-26T10:48:55.098Z,12.02
2019-02-26T10:54:05.079Z,12.25
2019-02-26T10:59:13.145Z,12.36
2019-02-26T11:04:19.963Z,12.57
2019-02-26T11:09:29.270Z,12.69
2019-02-26T11:14:36.057Z,12.33
2019-02-26T11:19:41.924Z,12.23
2019-02-26T11:24:48.523Z,12.89
2019-02-26T11:29:56.968Z,13.82
2019-02-26T11:35:02.834Z,13.18
2019-02-26T11:40:13.556Z,12.72
2019-02-26T11:45:24.080Z,12.90
2019-02-26T11:50:29.732Z,12.54
2019-02-26T11:55:37.481Z,12.32
2019-02-26T12:00:47.638Z,13.54
2019-02-26T12:05:54.180Z,13.49
2019-02-26T12:11:03.801Z,13.24
2019-02-26T12:16:09.399Z,13.27
2019-02-26T12:21:14.986Z,13.49
2019-02-26T12:26:22.197Z,13.71
2019-02-26T12:31:31.789Z,14.03
2019-02-26T12:36:38.126Z,13.80
2019-02-26T12:41:45.309Z,13.65
2019-02-26T12:46:53.627Z,13.45
2019-02-26T12:51:59.949Z,14.02
2019-02-26T12:57:06.615Z,13.20
2019-02-26T13:02:16.720Z,13.69
2019-02-26T13:07:20.972Z,14.32
2019-02-26T13:12:29.666Z,14.27
2019-02-26T13:17:34.895Z,13.87
2019-02-26T13:22:45.788Z,13.61
2019-02-26T13:27:51.013Z,14.37
2019-02-26T13:33:00.737Z,14.36
2019-02-26T13:38:05.737Z,14.34
2019-02-26T13:43:11.548Z,13.97
2019-02-26T13:48:20.185Z,13.68
2019-02-26T13:53:25.967Z,14.40
2019-02-26T13:58:32.328Z,14.74
2019-02-26T14:03:39.872Z,14.48
2019-02-26T14:08:46.344Z,15.03
2019-02-26T14:13:52.838Z,14.89
2019-02-26T14:18:58.634Z,15.38
2019-02-26T14:24:04.786Z,15.42
2019-02-26T14:29:10.702Z,15.55
2019-02-26T14:34:16.316Z,15.20
2019-02-26T14:39:23.655Z,15.34
2019-02-26T14:44:30.856Z,15.19
2019-02-26T14:49:37.844Z,16.17
2019-02-26T14:54:44.657Z,16.95
2019-02-26T14:59:50.811Z,16.92
2019-02-26T15:04:58.108Z,17.21
2019-02-26T15:10:07.748Z,17.28
2019-02-26T15:15:16.480Z,16.97
2019-02-26T15:20:23.911Z,17.54
2019-02-26T15:25:33.736Z,17.75
2019-02-26T15:30:40.073Z,16.83
2019-02-26T15:35:47.227Z,16.57
2019-02-26T15:40:54.847Z,17.00
2019-02-26T15:46:01.952Z,17.27
2019-02-26T15:51:14.346Z,17.25
2019-02-26T15:56:15.856Z,16.91
2019-02-26T16:01:23.909Z,15.57
2019-02-26T16:06:30.490Z,15.80
2019-02-26T16:11:37.874Z,15.88
2019-02-26T16:16:44.575Z,16.55
2019-02-26T16:21:50.264Z,16.64
2019-02-26T16:26:56.585Z,16.37
2019-02-26T16:32:04.999Z,16.09
2019-02-26T16:37:13.733Z,16.22
2019-02-26T16:42:19.805Z,16.38
2019-02-26T16:47:26.414Z,16.34
2019-02-26T16:52:34.678Z,16.23
2019-02-26T16:57:40.876Z,16.03
2019-02-26T17:02:48.573Z,16.12
2019-02-26T17:07:56.136Z,16.07
2019-02-26T17:13:05.918Z,15.11
2019-02-26T17:18:12.586Z,15.15
2019-02-26T17:23:18.282Z,14.93
2019-02-26T17:28:24.113Z,14.75
2019-02-26T17:33:30.010Z,14.69
2019-02-26T17:38:35.785Z,14.25
2019-02-26T17:43:41.561Z,14.46
2019-02-26T17:48:47.622Z,14.53
2019-02-26T17:53:53.183Z,14.58
2019-02-26T17:59:00.022Z,14.37
2019-02-26T18:04:07.179Z,14.53
2019-02-26T18:09:13.086Z,14.87
2019-02-26T18:14:19.065Z,14.89
2019-02-26T18:19:25.070Z,15.01
2019-02-26T18:24:30.933Z,15.03
2019-02-26T18:29:38.518Z,14.96
2019-02-26T18:34:47.028Z,14.85
2019-02-26T18:39:54.712Z,14.58
2019-02-26T18:45:01.286Z,14.55
2019-02-26T18:50:10.201Z,14.51
2019-02-26T18:55:19.266Z,14.42
2019-02-26T19:00:28.343Z,14.19
2019-02-26T19:05:33.975Z,13.86
2019-02-26T19:10:39.831Z,13.75
2019-02-26T19:15:47.549Z,14.00
2019-02-26T19:20:52.763Z,14.13
2019-02-26T19:25:58.348Z,13.95
2019-02-26T19:31:04.195Z,14.05
2019-02-26T19:36:13.065Z,14.05
2019-02-26T19:41:18.191Z,14.09
2019-02-26T19:46:24.122Z,14.00
2019-02-26T19:51:30.167Z,13.65
2019-02-26T19:56:36.164Z,13.53
2019-02-26T20:01:43.350Z,13.64
2019-02-26T20:06:49.620Z,13.74
2019-02-26T20:11:56.838Z,13.74
2019-02-26T20:17:13.675Z,13.73
2019-02-26T20:22:11.643Z,13.73
2019-02-26T20:27:21.671Z,13.37
2019-02-26T20:32:28.795Z,13.15
2019-02-26T20:37:37.130Z,13.36
2019-02-26T20:42:43.079Z,13.40
2019-02-26T20:47:50.357Z,13.40
2019-02-26T20:52:57.290Z,13.40
2019-02-26T20:58:02.939Z,13.37
2019-02-26T21:03:08.768Z,13.33
2019-02-26T21:08:15.140Z,13.23
2019-02-26T21:13:21.052Z,13.14
2019-02-26T21:18:30.317Z,13.01
2019-02-26T21:23:34.000Z,13.01
2019-02-26T21:28:41.422Z,12.89
2019-02-26T21:33:47.153Z,12.33
2019-02-26T21:38:53.529Z,12.38
2019-02-26T21:43:59.680Z,12.52
2019-02-26T21:49:07.541Z,12.61
2019-02-26T21:54:12.532Z,12.61
2019-02-26T21:59:18.128Z,12.44
2019-02-26T22:04:25.060Z,11.77
2019-02-26T22:09:30.667Z,11.27
2019-02-26T22:14:37.446Z,11.47
2019-02-26T22:19:44.308Z,11.32
2019-02-26T22:24:50.225Z,11.24
2019-02-26T22:29:55.798Z,11.04
2019-02-26T22:35:03.288Z,11.11
2019-02-26T22:40:11.611Z,11.15
2019-02-26T22:45:17.656Z,11.41
2019-02-26T22:50:24.863Z,10.56
2019-02-26T22:55:32.131Z,10.64
2019-02-26T23:00:54.350Z,11.12
2019-02-26T23:06:03.735Z,11.16
2019-02-26T23:11:12.043Z,11.38
2019-02-26T23:16:19.117Z,11.48
2019-02-26T23:21:25.361Z,10.78
2019-02-26T23:26:32.451Z,10.65
2019-02-26T23:31:38.542Z,11.19
2019-02-26T23:36:44.627Z,11.29
2019-02-26T23:41:50.736Z,11.41
2019-02-26T23:46:56.610Z,11.42
2019-02-26T23:52:03.503Z,11.36
2019-02-26T23:57:09.511Z,11.38
